Lederach, Pennsylvania
Current Conditions -  °F | °C
As of 6:54 PM on Sunday 23 Nov 2014 (Local Time) from KPTW Reporting Station
Clear Clear  
Wind Chill: 43°   Ceiling: Unl
Heat Index: 43°   Visibility: 10mi
Dew Point: 29°   Wind: 0mph
Humidity: 58%   Direction: NA
Pressure: 30.1"   Gusts: NA
Location:  40.26°N, 75.41°W
Report Text: KPTW 232354Z AUTO 00000KT 10SM CLR 06/M02 A3010 RMK AO2 SLP192 T00611017 10139 20061 58005
Loading
Personal Weather Stations






























Interactive Weather Map New forecast layout! Learn more

10-Day Weather Forecast

Advertisements
Track Severe Weather on mobile